Strona główna
METAR-TAF:

METAR-TAF

Lotnisko :

Port lotniczy Dżibuti-Ambouli

Dżibuti, Dżibuti

Szerokość geograficzna: 11-33N, Długość geograficzna: 043-10E, wysokość: 49 m

METAR: brakujący

czas: 18:51 (15:51 UTC)

Prognoza

Raport powstał 16 godziny i 51 minut temu, godzina 23:00 UTC
Prognoza ważna od 28 godzina 00 UTC do 28 godzina 24 UTC
Wiatr kt od północ
Widzialność 10 km lub więcej
Rozproszone chmury na wysokości 2300 ft
Rozproszone chmury na wysokości 13300 ft
Stopniowe zmiany
od 28 godzina 06 UTC do 28 godzina 12 UTC
Rozproszone chmury na wysokości 2300 ft
Rozproszone chmury na wysokości 13300 ft
Stopniowe zmiany
od 28 godzina 15 UTC do 28 godzina 21 UTC
Wiatr 3 kt z kierunków zmiennych
Rozproszone chmury na wysokości 2300 ft
Rozproszone chmury na wysokości 13300 ft

TAF: HDAM 272300Z 2800/2824 00000KT 9999 SCT023 SCT133 BECMG 2806/2812 SCT023 SCT133 BECMG 2815/2821 VRB03KT SCT023 SCT133

Obserwacja i prognoza pogody dla ponad 4000 lotnisk (raport METAR i TAF).

Dostępne stacje oznaczono żółtymi i czerwonymi punktami na mapie.

Najedź kursorem aby zobaczyć nazwę stacji.

Kliknij aby zobaczyć obserwacje i prognozy pogody.

Aby zmienić mapę: kliknij na zielony przycisk z czarnym krzyżykiem, aby powiększyć; na zielony przycisk z myślnikiem, aby pomniejszyć; na zielone strzałki, aby przejść do map sąsiednich.


METAR-TAF: